sensor_id;sensor_type;location;lat;lon;timestamp;temperature;humidity
63017;DHT22;50274;45.640;11.756;2022-10-14T00:00:52;16.80;67.70
63017;DHT22;50274;45.640;11.756;2022-10-14T00:03:18;16.80;67.70
63017;DHT22;50274;45.640;11.756;2022-10-14T00:05:44;16.80;67.70
63017;DHT22;50274;45.640;11.756;2022-10-14T00:08:10;16.80;67.70
63017;DHT22;50274;45.640;11.756;2022-10-14T00:10:37;16.70;67.80
63017;DHT22;50274;45.640;11.756;2022-10-14T00:13:04;16.70;67.80
63017;DHT22;50274;45.640;11.756;2022-10-14T00:15:30;16.60;67.90
63017;DHT22;50274;45.640;11.756;2022-10-14T00:17:55;16.60;68.00
63017;DHT22;50274;45.640;11.756;2022-10-14T00:20:21;16.60;68.00
63017;DHT22;50274;45.640;11.756;2022-10-14T00:22:47;16.50;68.10
63017;DHT22;50274;45.640;11.756;2022-10-14T00:25:13;16.50;68.20
63017;DHT22;50274;45.640;11.756;2022-10-14T00:27:42;16.40;68.30
63017;DHT22;50274;45.640;11.756;2022-10-14T00:30:08;16.30;68.40
63017;DHT22;50274;45.640;11.756;2022-10-14T00:32:34;16.30;68.50
63017;DHT22;50274;45.640;11.756;2022-10-14T00:35:00;16.30;68.50
63017;DHT22;50274;45.640;11.756;2022-10-14T00:37:25;16.30;68.60
63017;DHT22;50274;45.640;11.756;2022-10-14T00:39:51;16.30;68.60
63017;DHT22;50274;45.640;11.756;2022-10-14T00:42:17;16.30;68.50
63017;DHT22;50274;45.640;11.756;2022-10-14T00:47:08;16.30;68.40
63017;DHT22;50274;45.640;11.756;2022-10-14T00:49:42;16.20;68.40
63017;DHT22;50274;45.640;11.756;2022-10-14T00:52:17;16.20;68.40
63017;DHT22;50274;45.640;11.756;2022-10-14T00:54:55;16.10;68.40
63017;DHT22;50274;45.640;11.756;2022-10-14T00:57:24;16.20;68.40
63017;DHT22;50274;45.640;11.756;2022-10-14T00:59:51;16.10;68.40
63017;DHT22;50274;45.640;11.756;2022-10-14T01:02:19;16.10;68.40
63017;DHT22;50274;45.640;11.756;2022-10-14T01:04:44;16.10;68.40
63017;DHT22;50274;45.640;11.756;2022-10-14T01:09:52;16.00;68.50
63017;DHT22;50274;45.640;11.756;2022-10-14T01:15:25;16.00;68.50
63017;DHT22;50274;45.640;11.756;2022-10-14T01:21:03;16.00;68.40
63017;DHT22;50274;45.640;11.756;2022-10-14T01:26:40;15.90;68.40
63017;DHT22;50274;45.640;11.756;2022-10-14T01:32:02;15.90;68.50
63017;DHT22;50274;45.640;11.756;2022-10-14T01:34:35;15.80;68.50
63017;DHT22;50274;45.640;11.756;2022-10-14T01:37:06;15.80;68.50
63017;DHT22;50274;45.640;11.756;2022-10-14T01:39:47;15.80;68.60
63017;DHT22;50274;45.640;11.756;2022-10-14T01:42:23;15.80;68.60
63017;DHT22;50274;45.640;11.756;2022-10-14T01:45:14;15.80;68.60
63017;DHT22;50274;45.640;11.756;2022-10-14T01:47:43;15.80;68.60
63017;DHT22;50274;45.640;11.756;2022-10-14T01:50:16;15.80;68.50
63017;DHT22;50274;45.640;11.756;2022-10-14T01:52:53;15.80;68.60
63017;DHT22;50274;45.640;11.756;2022-10-14T01:55:24;15.70;68.60
63017;DHT22;50274;45.640;11.756;2022-10-14T01:57:53;15.70;68.60
63017;DHT22;50274;45.640;11.756;2022-10-14T02:00:20;15.60;68.60
63017;DHT22;50274;45.640;11.756;2022-10-14T02:02:46;15.60;68.80
63017;DHT22;50274;45.640;11.756;2022-10-14T02:05:21;15.60;68.90
63017;DHT22;50274;45.640;11.756;2022-10-14T02:11:14;15.50;68.90
63017;DHT22;50274;45.640;11.756;2022-10-14T02:14:15;15.50;68.80
63017;DHT22;50274;45.640;11.756;2022-10-14T02:17:10;15.50;68.80
63017;DHT22;50274;45.640;11.756;2022-10-14T02:20:00;15.40;68.90
63017;DHT22;50274;45.640;11.756;2022-10-14T02:22:34;15.40;69.00
63017;DHT22;50274;45.640;11.756;2022-10-14T02:25:12;15.30;69.10
63017;DHT22;50274;45.640;11.756;2022-10-14T02:27:42;15.30;69.10
63017;DHT22;50274;45.640;11.756;2022-10-14T02:30:09;15.30;69.10
63017;DHT22;50274;45.640;11.756;2022-10-14T02:32:36;15.30;69.10
63017;DHT22;50274;45.640;11.756;2022-10-14T02:35:04;15.30;69.10
63017;DHT22;50274;45.640;11.756;2022-10-14T02:37:32;15.20;69.20
63017;DHT22;50274;45.640;11.756;2022-10-14T02:40:09;15.20;69.20
63017;DHT22;50274;45.640;11.756;2022-10-14T02:42:36;15.20;69.20
63017;DHT22;50274;45.640;11.756;2022-10-14T02:45:02;15.10;69.30
63017;DHT22;50274;45.640;11.756;2022-10-14T02:47:28;15.10;69.30
63017;DHT22;50274;45.640;11.756;2022-10-14T02:49:54;15.20;69.30
63017;DHT22;50274;45.640;11.756;2022-10-14T02:52:20;15.10;69.30
63017;DHT22;50274;45.640;11.756;2022-10-14T02:54:45;15.20;69.30
63017;DHT22;50274;45.640;11.756;2022-10-14T02:57:11;15.10;69.20
63017;DHT22;50274;45.640;11.756;2022-10-14T02:59:37;15.20;69.20
63017;DHT22;50274;45.640;11.756;2022-10-14T03:02:04;15.10;69.20
63017;DHT22;50274;45.640;11.756;2022-10-14T03:04:32;15.10;69.20
63017;DHT22;50274;45.640;11.756;2022-10-14T03:06:57;15.10;69.20
63017;DHT22;50274;45.640;11.756;2022-10-14T03:09:23;15.10;69.20
63017;DHT22;50274;45.640;11.756;2022-10-14T03:11:49;15.10;69.10
63017;DHT22;50274;45.640;11.756;2022-10-14T03:14:15;15.10;69.10
63017;DHT22;50274;45.640;11.756;2022-10-14T03:16:41;15.10;69.10
63017;DHT22;50274;45.640;11.756;2022-10-14T03:19:07;15.10;69.10
63017;DHT22;50274;45.640;11.756;2022-10-14T03:21:32;15.00;69.10
63017;DHT22;50274;45.640;11.756;2022-10-14T03:23:58;15.00;69.10
63017;DHT22;50274;45.640;11.756;2022-10-14T03:26:26;15.10;69.00
63017;DHT22;50274;45.640;11.756;2022-10-14T03:28:52;15.00;69.00
63017;DHT22;50274;45.640;11.756;2022-10-14T03:31:19;15.00;69.00
63017;DHT22;50274;45.640;11.756;2022-10-14T03:33:45;15.00;69.00
63017;DHT22;50274;45.640;11.756;2022-10-14T03:36:11;15.00;69.10
63017;DHT22;50274;45.640;11.756;2022-10-14T03:38:37;14.90;69.20
63017;DHT22;50274;45.640;11.756;2022-10-14T03:41:03;14.90;69.20
63017;DHT22;50274;45.640;11.756;2022-10-14T03:43:29;14.90;69.20
63017;DHT22;50274;45.640;11.756;2022-10-14T03:45:55;14.90;69.20
63017;DHT22;50274;45.640;11.756;2022-10-14T03:48:21;14.90;69.10
63017;DHT22;50274;45.640;11.756;2022-10-14T03:50:47;14.80;69.10
63017;DHT22;50274;45.640;11.756;2022-10-14T03:53:13;14.80;69.10
63017;DHT22;50274;45.640;11.756;2022-10-14T03:55:39;14.80;69.20
63017;DHT22;50274;45.640;11.756;2022-10-14T03:58:05;14.70;69.30
63017;DHT22;50274;45.640;11.756;2022-10-14T04:00:32;14.70;69.30
63017;DHT22;50274;45.640;11.756;2022-10-14T04:03:00;14.60;69.40
63017;DHT22;50274;45.640;11.756;2022-10-14T04:05:26;14.60;69.40
63017;DHT22;50274;45.640;11.756;2022-10-14T04:07:57;14.70;69.40
63017;DHT22;50274;45.640;11.756;2022-10-14T04:10:26;14.60;69.40
63017;DHT22;50274;45.640;11.756;2022-10-14T04:12:52;14.60;69.40
63017;DHT22;50274;45.640;11.756;2022-10-14T04:15:18;14.60;69.40
63017;DHT22;50274;45.640;11.756;2022-10-14T04:17:44;14.70;69.40
63017;DHT22;50274;45.640;11.756;2022-10-14T04:20:10;14.60;69.40
63017;DHT22;50274;45.640;11.756;2022-10-14T04:22:36;14.60;69.40
63017;DHT22;50274;45.640;11.756;2022-10-14T04:25:02;14.70;69.30
63017;DHT22;50274;45.640;11.756;2022-10-14T04:27:28;14.70;69.30
63017;DHT22;50274;45.640;11.756;2022-10-14T04:29:54;14.70;69.30
63017;DHT22;50274;45.640;11.756;2022-10-14T04:32:19;14.60;69.30
63017;DHT22;50274;45.640;11.756;2022-10-14T04:34:45;14.60;69.30
63017;DHT22;50274;45.640;11.756;2022-10-14T04:37:13;14.70;69.20
63017;DHT22;50274;45.640;11.756;2022-10-14T04:39:39;14.70;69.20
63017;DHT22;50274;45.640;11.756;2022-10-14T04:42:05;14.70;69.10
63017;DHT22;50274;45.640;11.756;2022-10-14T04:44:31;14.70;69.10
63017;DHT22;50274;45.640;11.756;2022-10-14T04:46:56;14.60;69.10
63017;DHT22;50274;45.640;11.756;2022-10-14T04:49:23;14.60;69.10
63017;DHT22;50274;45.640;11.756;2022-10-14T04:51:49;14.60;69.10
63017;DHT22;50274;45.640;11.756;2022-10-14T04:54:15;14.60;69.10
63017;DHT22;50274;45.640;11.756;2022-10-14T04:56:40;14.60;69.20
63017;DHT22;50274;45.640;11.756;2022-10-14T04:59:06;14.50;69.10
63017;DHT22;50274;45.640;11.756;2022-10-14T05:01:32;14.50;69.20
63017;DHT22;50274;45.640;11.756;2022-10-14T05:03:58;14.50;69.10
63017;DHT22;50274;45.640;11.756;2022-10-14T05:06:24;14.60;69.10
63017;DHT22;50274;45.640;11.756;2022-10-14T05:08:50;14.50;69.00
63017;DHT22;50274;45.640;11.756;2022-10-14T05:11:16;14.50;69.00
63017;DHT22;50274;45.640;11.756;2022-10-14T05:13:43;14.50;69.00
63017;DHT22;50274;45.640;11.756;2022-10-14T05:16:09;14.50;69.10
63017;DHT22;50274;45.640;11.756;2022-10-14T05:18:36;14.40;69.10
63017;DHT22;50274;45.640;11.756;2022-10-14T05:21:02;14.40;69.10
63017;DHT22;50274;45.640;11.756;2022-10-14T05:23:27;14.30;69.20
63017;DHT22;50274;45.640;11.756;2022-10-14T05:25:53;14.30;69.30
63017;DHT22;50274;45.640;11.756;2022-10-14T05:28:19;14.30;69.40
63017;DHT22;50274;45.640;11.756;2022-10-14T05:30:45;14.30;69.50
63017;DHT22;50274;45.640;11.756;2022-10-14T05:33:11;14.30;69.50
63017;DHT22;50274;45.640;11.756;2022-10-14T05:35:37;14.30;69.50
63017;DHT22;50274;45.640;11.756;2022-10-14T05:38:03;14.30;69.40
63017;DHT22;50274;45.640;11.756;2022-10-14T05:40:31;14.30;69.40
63017;DHT22;50274;45.640;11.756;2022-10-14T05:42:57;14.20;69.40
63017;DHT22;50274;45.640;11.756;2022-10-14T05:45:23;14.20;69.40
63017;DHT22;50274;45.640;11.756;2022-10-14T05:47:50;14.20;69.40
63017;DHT22;50274;45.640;11.756;2022-10-14T05:50:21;14.20;69.40
63017;DHT22;50274;45.640;11.756;2022-10-14T05:52:50;14.20;69.50
63017;DHT22;50274;45.640;11.756;2022-10-14T05:55:15;14.30;69.50
63017;DHT22;50274;45.640;11.756;2022-10-14T05:57:41;14.20;69.50
63017;DHT22;50274;45.640;11.756;2022-10-14T06:00:09;14.20;69.50
63017;DHT22;50274;45.640;11.756;2022-10-14T06:02:35;14.30;69.50
63017;DHT22;50274;45.640;11.756;2022-10-14T06:05:01;14.30;69.60
63017;DHT22;50274;45.640;11.756;2022-10-14T06:07:29;14.30;69.60
63017;DHT22;50274;45.640;11.756;2022-10-14T06:09:58;14.30;69.60
63017;DHT22;50274;45.640;11.756;2022-10-14T06:12:23;14.20;69.70
63017;DHT22;50274;45.640;11.756;2022-10-14T06:14:49;14.20;69.70
63017;DHT22;50274;45.640;11.756;2022-10-14T06:17:17;14.30;69.80
63017;DHT22;50274;45.640;11.756;2022-10-14T06:19:46;14.30;69.80
63017;DHT22;50274;45.640;11.756;2022-10-14T06:22:14;14.30;69.80
63017;DHT22;50274;45.640;11.756;2022-10-14T06:24:40;14.40;69.80
63017;DHT22;50274;45.640;11.756;2022-10-14T06:27:06;14.40;69.80
63017;DHT22;50274;45.640;11.756;2022-10-14T06:29:31;14.50;69.80
63017;DHT22;50274;45.640;11.756;2022-10-14T06:32:06;14.50;69.80
63017;DHT22;50274;45.640;11.756;2022-10-14T06:34:32;14.60;69.80
63017;DHT22;50274;45.640;11.756;2022-10-14T06:37:01;14.60;69.70
63017;DHT22;50274;45.640;11.756;2022-10-14T06:39:27;14.70;69.70
63017;DHT22;50274;45.640;11.756;2022-10-14T06:41:53;14.70;69.70
63017;DHT22;50274;45.640;11.756;2022-10-14T06:44:19;14.80;69.80
63017;DHT22;50274;45.640;11.756;2022-10-14T06:46:45;14.80;69.70
63017;DHT22;50274;45.640;11.756;2022-10-14T06:49:11;14.90;69.70
63017;DHT22;50274;45.640;11.756;2022-10-14T06:51:37;15.00;69.70
63017;DHT22;50274;45.640;11.756;2022-10-14T06:54:04;15.00;69.70
63017;DHT22;50274;45.640;11.756;2022-10-14T06:56:30;15.10;69.70
63017;DHT22;50274;45.640;11.756;2022-10-14T06:58:56;15.20;69.60
63017;DHT22;50274;45.640;11.756;2022-10-14T07:01:22;15.20;69.60
63017;DHT22;50274;45.640;11.756;2022-10-14T07:03:48;15.30;69.60
63017;DHT22;50274;45.640;11.756;2022-10-14T07:06:14;15.40;69.60
63017;DHT22;50274;45.640;11.756;2022-10-14T07:08:39;15.50;69.60
63017;DHT22;50274;45.640;11.756;2022-10-14T07:11:06;15.60;69.50
63017;DHT22;50274;45.640;11.756;2022-10-14T07:13:32;15.70;69.50
63017;DHT22;50274;45.640;11.756;2022-10-14T07:15:59;15.70;69.50
63017;DHT22;50274;45.640;11.756;2022-10-14T07:18:25;15.80;69.40
63017;DHT22;50274;45.640;11.756;2022-10-14T07:20:51;16.00;69.40
63017;DHT22;50274;45.640;11.756;2022-10-14T07:23:17;16.00;69.40
63017;DHT22;50274;45.640;11.756;2022-10-14T07:25:43;16.10;69.40
63017;DHT22;50274;45.640;11.756;2022-10-14T07:28:09;16.30;69.40
63017;DHT22;50274;45.640;11.756;2022-10-14T07:30:35;16.30;69.40
63017;DHT22;50274;45.640;11.756;2022-10-14T07:33:01;16.50;69.30
63017;DHT22;50274;45.640;11.756;2022-10-14T07:35:27;16.60;69.50
63017;DHT22;50274;45.640;11.756;2022-10-14T07:37:53;16.70;69.40
63017;DHT22;50274;45.640;11.756;2022-10-14T07:40:20;16.80;69.50
63017;DHT22;50274;45.640;11.756;2022-10-14T07:42:46;16.90;69.40
63017;DHT22;50274;45.640;11.756;2022-10-14T07:45:12;17.00;69.30
63017;DHT22;50274;45.640;11.756;2022-10-14T07:47:43;17.10;69.20
63017;DHT22;50274;45.640;11.756;2022-10-14T07:50:10;17.30;69.00
63017;DHT22;50274;45.640;11.756;2022-10-14T07:52:36;17.30;68.80
63017;DHT22;50274;45.640;11.756;2022-10-14T07:55:03;17.50;68.70
63017;DHT22;50274;45.640;11.756;2022-10-14T07:57:29;17.50;68.70
63017;DHT22;50274;45.640;11.756;2022-10-14T07:59:55;17.70;68.40
63017;DHT22;50274;45.640;11.756;2022-10-14T08:02:21;17.80;68.00
63017;DHT22;50274;45.640;11.756;2022-10-14T08:04:51;17.80;67.80
63017;DHT22;50274;45.640;11.756;2022-10-14T08:07:20;18.00;67.60
63017;DHT22;50274;45.640;11.756;2022-10-14T08:09:46;18.00;67.50
63017;DHT22;50274;45.640;11.756;2022-10-14T08:12:14;18.10;67.30
63017;DHT22;50274;45.640;11.756;2022-10-14T08:14:40;18.20;67.20
63017;DHT22;50274;45.640;11.756;2022-10-14T08:17:06;18.30;66.70
63017;DHT22;50274;45.640;11.756;2022-10-14T08:19:32;18.40;66.20
63017;DHT22;50274;45.640;11.756;2022-10-14T08:22:00;18.50;65.30
63017;DHT22;50274;45.640;11.756;2022-10-14T08:24:26;18.60;65.10
63017;DHT22;50274;45.640;11.756;2022-10-14T08:26:56;18.70;65.00
63017;DHT22;50274;45.640;11.756;2022-10-14T08:29:23;18.80;64.50
63017;DHT22;50274;45.640;11.756;2022-10-14T08:31:51;19.00;64.00
63017;DHT22;50274;45.640;11.756;2022-10-14T08:34:18;19.10;63.00
63017;DHT22;50274;45.640;11.756;2022-10-14T08:36:46;19.10;62.70
63017;DHT22;50274;45.640;11.756;2022-10-14T08:39:13;19.30;61.90
63017;DHT22;50274;45.640;11.756;2022-10-14T08:42:19;19.40;61.80
63017;DHT22;50274;45.640;11.756;2022-10-14T08:44:52;19.50;61.20
63017;DHT22;50274;45.640;11.756;2022-10-14T08:47:29;19.70;60.00
63017;DHT22;50274;45.640;11.756;2022-10-14T08:50:21;19.70;59.90
63017;DHT22;50274;45.640;11.756;2022-10-14T08:53:03;19.90;59.70
63017;DHT22;50274;45.640;11.756;2022-10-14T08:55:40;20.00;58.90
63017;DHT22;50274;45.640;11.756;2022-10-14T08:58:18;20.10;58.80
63017;DHT22;50274;45.640;11.756;2022-10-14T09:00:48;20.20;57.40
63017;DHT22;50274;45.640;11.756;2022-10-14T09:03:26;20.30;57.10
63017;DHT22;50274;45.640;11.756;2022-10-14T09:06:19;20.40;56.90
63017;DHT22;50274;45.640;11.756;2022-10-14T09:08:48;20.50;56.70
63017;DHT22;50274;45.640;11.756;2022-10-14T09:11:19;20.60;56.90
63017;DHT22;50274;45.640;11.756;2022-10-14T09:13:55;20.70;56.90
63017;DHT22;50274;45.640;11.756;2022-10-14T09:16:30;20.80;56.60
63017;DHT22;50274;45.640;11.756;2022-10-14T09:19:31;20.80;55.90
63017;DHT22;50274;45.640;11.756;2022-10-14T09:21:58;21.00;55.50
63017;DHT22;50274;45.640;11.756;2022-10-14T09:24:33;21.10;55.50
63017;DHT22;50274;45.640;11.756;2022-10-14T09:27:05;21.20;54.80
63017;DHT22;50274;45.640;11.756;2022-10-14T09:30:33;21.30;54.60
63017;DHT22;50274;45.640;11.756;2022-10-14T09:32:46;21.50;54.70
63017;DHT22;50274;45.640;11.756;2022-10-14T09:35:34;21.60;54.80
63017;DHT22;50274;45.640;11.756;2022-10-14T09:38:02;21.70;54.80
63017;DHT22;50274;45.640;11.756;2022-10-14T09:45:53;22.00;54.10
63017;DHT22;50274;45.640;11.756;2022-10-14T09:48:38;22.10;53.00
63017;DHT22;50274;45.640;11.756;2022-10-14T09:51:21;22.10;52.60
63017;DHT22;50274;45.640;11.756;2022-10-14T09:53:51;22.20;52.60
63017;DHT22;50274;45.640;11.756;2022-10-14T09:56:34;22.20;52.50
63017;DHT22;50274;45.640;11.756;2022-10-14T09:59:20;22.30;52.50
63017;DHT22;50274;45.640;11.756;2022-10-14T10:02:00;22.40;51.80
63017;DHT22;50274;45.640;11.756;2022-10-14T10:04:42;22.50;51.60
63017;DHT22;50274;45.640;11.756;2022-10-14T10:07:27;22.60;51.50
63017;DHT22;50274;45.640;11.756;2022-10-14T10:09:55;22.60;51.10
63017;DHT22;50274;45.640;11.756;2022-10-14T10:12:32;22.70;50.90
63017;DHT22;50274;45.640;11.756;2022-10-14T10:15:03;22.80;51.10
63017;DHT22;50274;45.640;11.756;2022-10-14T10:17:33;22.90;50.80
63017;DHT22;50274;45.640;11.756;2022-10-14T10:20:27;23.00;50.70
63017;DHT22;50274;45.640;11.756;2022-10-14T10:23:23;23.10;50.40
63017;DHT22;50274;45.640;11.756;2022-10-14T10:25:50;23.20;50.30
63017;DHT22;50274;45.640;11.756;2022-10-14T10:28:20;23.30;49.70
63017;DHT22;50274;45.640;11.756;2022-10-14T10:31:18;23.40;49.40
63017;DHT22;50274;45.640;11.756;2022-10-14T10:34:41;23.50;49.20
63017;DHT22;50274;45.640;11.756;2022-10-14T10:48:08;24.20;46.70
63017;DHT22;50274;45.640;11.756;2022-10-14T10:53:17;24.40;47.60
63017;DHT22;50274;45.640;11.756;2022-10-14T10:56:09;24.40;46.90
63017;DHT22;50274;45.640;11.756;2022-10-14T11:01:27;24.60;46.90
63017;DHT22;50274;45.640;11.756;2022-10-14T11:04:27;24.70;46.50
63017;DHT22;50274;45.640;11.756;2022-10-14T11:07:11;24.90;46.50
63017;DHT22;50274;45.640;11.756;2022-10-14T11:31:25;25.50;43.30
63017;DHT22;50274;45.640;11.756;2022-10-14T11:37:14;25.70;44.00
63017;DHT22;50274;45.640;11.756;2022-10-14T11:39:54;25.80;44.00
63017;DHT22;50274;45.640;11.756;2022-10-14T11:42:51;25.90;43.50
63017;DHT22;50274;45.640;11.756;2022-10-14T11:51:33;25.70;44.00
63017;DHT22;50274;45.640;11.756;2022-10-14T11:54:29;25.60;43.50
63017;DHT22;50274;45.640;11.756;2022-10-14T12:10:50;25.50;43.90
63017;DHT22;50274;45.640;11.756;2022-10-14T12:13:19;25.60;43.90
63017;DHT22;50274;45.640;11.756;2022-10-14T12:15:49;25.60;43.90
63017;DHT22;50274;45.640;11.756;2022-10-14T12:18:16;25.70;43.50
63017;DHT22;50274;45.640;11.756;2022-10-14T12:21:11;25.80;43.30
63017;DHT22;50274;45.640;11.756;2022-10-14T12:23:42;25.90;43.20
63017;DHT22;50274;45.640;11.756;2022-10-14T12:26:26;26.10;43.30
63017;DHT22;50274;45.640;11.756;2022-10-14T12:28:58;26.20;43.20
63017;DHT22;50274;45.640;11.756;2022-10-14T12:36:42;26.50;42.70
63017;DHT22;50274;45.640;11.756;2022-10-14T12:42:09;26.60;42.70
63017;DHT22;50274;45.640;11.756;2022-10-14T12:44:46;26.70;42.60
63017;DHT22;50274;45.640;11.756;2022-10-14T12:47:37;26.80;42.30
63017;DHT22;50274;45.640;11.756;2022-10-14T12:52:44;26.70;41.60
63017;DHT22;50274;45.640;11.756;2022-10-14T12:55:38;26.50;42.00
63017;DHT22;50274;45.640;11.756;2022-10-14T12:58:25;26.40;42.00
63017;DHT22;50274;45.640;11.756;2022-10-14T13:01:04;26.30;42.00
63017;DHT22;50274;45.640;11.756;2022-10-14T13:03:33;26.20;42.40
63017;DHT22;50274;45.640;11.756;2022-10-14T13:06:27;26.10;42.40
63017;DHT22;50274;45.640;11.756;2022-10-14T13:14:23;25.90;42.30
63017;DHT22;50274;45.640;11.756;2022-10-14T13:16:59;26.00;42.40
63017;DHT22;50274;45.640;11.756;2022-10-14T13:25:05;25.70;42.60
63017;DHT22;50274;45.640;11.756;2022-10-14T13:28:00;25.60;42.70
63017;DHT22;50274;45.640;11.756;2022-10-14T13:30:51;25.40;42.60
63017;DHT22;50274;45.640;11.756;2022-10-14T13:36:15;25.00;43.10
63017;DHT22;50274;45.640;11.756;2022-10-14T13:38:46;24.80;43.10
63017;DHT22;50274;45.640;11.756;2022-10-14T13:41:17;24.60;43.40
63017;DHT22;50274;45.640;11.756;2022-10-14T13:43:54;24.40;43.90
63017;DHT22;50274;45.640;11.756;2022-10-14T13:46:41;24.20;44.40
63017;DHT22;50274;45.640;11.756;2022-10-14T13:49:14;24.10;45.20
63017;DHT22;50274;45.640;11.756;2022-10-14T13:56:38;23.70;46.40
63017;DHT22;50274;45.640;11.756;2022-10-14T13:59:25;23.70;46.50
63017;DHT22;50274;45.640;11.756;2022-10-14T14:02:00;23.60;46.80
63017;DHT22;50274;45.640;11.756;2022-10-14T14:04:31;23.50;47.20
63017;DHT22;50274;45.640;11.756;2022-10-14T14:06:57;23.50;47.40
63017;DHT22;50274;45.640;11.756;2022-10-14T14:09:26;23.40;47.40
63017;DHT22;50274;45.640;11.756;2022-10-14T14:11:56;23.40;47.30
63017;DHT22;50274;45.640;11.756;2022-10-14T14:14:29;23.40;47.30
63017;DHT22;50274;45.640;11.756;2022-10-14T14:17:01;23.40;47.20
63017;DHT22;50274;45.640;11.756;2022-10-14T14:19:32;23.40;47.20
63017;DHT22;50274;45.640;11.756;2022-10-14T14:24:32;23.30;47.10
63017;DHT22;50274;45.640;11.756;2022-10-14T14:26:59;23.20;47.40
63017;DHT22;50274;45.640;11.756;2022-10-14T14:29:27;23.20;47.80
63017;DHT22;50274;45.640;11.756;2022-10-14T14:31:56;23.10;48.00
63017;DHT22;50274;45.640;11.756;2022-10-14T14:34:22;23.10;48.10
63017;DHT22;50274;45.640;11.756;2022-10-14T14:36:49;23.10;48.40
63017;DHT22;50274;45.640;11.756;2022-10-14T14:39:23;23.10;48.40
63017;DHT22;50274;45.640;11.756;2022-10-14T14:41:51;23.10;48.50
63017;DHT22;50274;45.640;11.756;2022-10-14T14:44:25;23.00;48.70
63017;DHT22;50274;45.640;11.756;2022-10-14T14:46:57;23.10;48.90
63017;DHT22;50274;45.640;11.756;2022-10-14T14:49:29;23.00;49.10
63017;DHT22;50274;45.640;11.756;2022-10-14T14:51:56;23.00;49.10
63017;DHT22;50274;45.640;11.756;2022-10-14T14:54:23;23.00;49.10
63017;DHT22;50274;45.640;11.756;2022-10-14T14:57:02;23.00;49.10
63017;DHT22;50274;45.640;11.756;2022-10-14T15:02:10;23.00;49.20
63017;DHT22;50274;45.640;11.756;2022-10-14T15:04:37;23.00;49.20
63017;DHT22;50274;45.640;11.756;2022-10-14T15:07:18;23.00;49.20
63017;DHT22;50274;45.640;11.756;2022-10-14T15:09:58;23.00;49.30
63017;DHT22;50274;45.640;11.756;2022-10-14T15:12:33;23.00;49.40
63017;DHT22;50274;45.640;11.756;2022-10-14T15:15:05;22.90;49.50
63017;DHT22;50274;45.640;11.756;2022-10-14T15:17:32;22.90;49.70
63017;DHT22;50274;45.640;11.756;2022-10-14T15:22:40;22.80;50.10
63017;DHT22;50274;45.640;11.756;2022-10-14T15:27:37;22.70;50.50
63017;DHT22;50274;45.640;11.756;2022-10-14T15:32:58;22.70;50.70
63017;DHT22;50274;45.640;11.756;2022-10-14T15:35:25;22.70;50.80
63017;DHT22;50274;45.640;11.756;2022-10-14T15:37:51;22.60;50.90
63017;DHT22;50274;45.640;11.756;2022-10-14T15:40:27;22.60;50.90
63017;DHT22;50274;45.640;11.756;2022-10-14T15:42:52;22.50;51.10
63017;DHT22;50274;45.640;11.756;2022-10-14T15:45:18;22.50;51.30
63017;DHT22;50274;45.640;11.756;2022-10-14T15:47:45;22.40;51.40
63017;DHT22;50274;45.640;11.756;2022-10-14T15:50:20;22.40;51.60
63017;DHT22;50274;45.640;11.756;2022-10-14T15:52:46;22.30;51.70
63017;DHT22;50274;45.640;11.756;2022-10-14T15:55:17;22.30;51.90
63017;DHT22;50274;45.640;11.756;2022-10-14T15:57:47;22.20;52.10
63017;DHT22;50274;45.640;11.756;2022-10-14T16:00:16;22.10;52.40
63017;DHT22;50274;45.640;11.756;2022-10-14T16:02:44;22.10;52.70
63017;DHT22;50274;45.640;11.756;2022-10-14T16:05:11;22.10;53.00
63017;DHT22;50274;45.640;11.756;2022-10-14T16:07:37;22.00;53.30
63017;DHT22;50274;45.640;11.756;2022-10-14T16:10:04;22.00;53.60
63017;DHT22;50274;45.640;11.756;2022-10-14T16:12:30;21.90;53.90
63017;DHT22;50274;45.640;11.756;2022-10-14T16:14:56;21.90;54.10
63017;DHT22;50274;45.640;11.756;2022-10-14T16:17:26;21.80;54.30
63017;DHT22;50274;45.640;11.756;2022-10-14T16:19:52;21.70;54.60
63017;DHT22;50274;45.640;11.756;2022-10-14T16:22:18;21.70;54.80
63017;DHT22;50274;45.640;11.756;2022-10-14T16:24:44;21.70;54.90
63017;DHT22;50274;45.640;11.756;2022-10-14T16:27:10;21.60;55.10
63017;DHT22;50274;45.640;11.756;2022-10-14T16:29:36;21.60;55.30
63017;DHT22;50274;45.640;11.756;2022-10-14T16:32:02;21.60;55.50
63017;DHT22;50274;45.640;11.756;2022-10-14T16:34:28;21.50;55.70
63017;DHT22;50274;45.640;11.756;2022-10-14T16:36:54;21.40;55.80
63017;DHT22;50274;45.640;11.756;2022-10-14T16:39:19;21.40;56.10
63017;DHT22;50274;45.640;11.756;2022-10-14T16:41:45;21.30;56.30
63017;DHT22;50274;45.640;11.756;2022-10-14T16:44:11;21.30;56.50
63017;DHT22;50274;45.640;11.756;2022-10-14T16:46:57;21.20;56.70
63017;DHT22;50274;45.640;11.756;2022-10-14T16:49:43;21.10;56.90
63017;DHT22;50274;45.640;11.756;2022-10-14T16:52:09;21.10;57.10
63017;DHT22;50274;45.640;11.756;2022-10-14T16:54:36;21.00;57.30
63017;DHT22;50274;45.640;11.756;2022-10-14T16:57:02;21.00;57.40
63017;DHT22;50274;45.640;11.756;2022-10-14T16:59:28;20.90;57.70
63017;DHT22;50274;45.640;11.756;2022-10-14T17:01:55;20.90;57.90
63017;DHT22;50274;45.640;11.756;2022-10-14T17:04:23;20.80;58.20
63017;DHT22;50274;45.640;11.756;2022-10-14T17:06:50;20.80;58.30
63017;DHT22;50274;45.640;11.756;2022-10-14T17:09:16;20.70;58.40
63017;DHT22;50274;45.640;11.756;2022-10-14T17:11:43;20.70;58.60
63017;DHT22;50274;45.640;11.756;2022-10-14T17:14:11;20.60;58.80
63017;DHT22;50274;45.640;11.756;2022-10-14T17:16:38;20.60;59.00
63017;DHT22;50274;45.640;11.756;2022-10-14T17:19:05;20.60;59.10
63017;DHT22;50274;45.640;11.756;2022-10-14T17:21:30;20.60;59.20
63017;DHT22;50274;45.640;11.756;2022-10-14T17:24:00;20.50;59.30
63017;DHT22;50274;45.640;11.756;2022-10-14T17:26:27;20.50;59.50
63017;DHT22;50274;45.640;11.756;2022-10-14T17:28:54;20.40;59.70
63017;DHT22;50274;45.640;11.756;2022-10-14T17:31:21;20.30;59.80
63017;DHT22;50274;45.640;11.756;2022-10-14T17:33:48;20.30;60.00
63017;DHT22;50274;45.640;11.756;2022-10-14T17:36:22;20.30;60.10
63017;DHT22;50274;45.640;11.756;2022-10-14T17:38:49;20.30;60.30
63017;DHT22;50274;45.640;11.756;2022-10-14T17:41:17;20.20;60.40
63017;DHT22;50274;45.640;11.756;2022-10-14T17:43:43;20.20;60.50
63017;DHT22;50274;45.640;11.756;2022-10-14T17:46:15;20.20;60.60